This is the latest recevied weather packets stored in our database for station/object SP6PGH-13. If no packets are shown the sender has not sent any weather packets the latest 10 day(s).
| Time | Temp. | Humidity | Pressure | Rain* | Wind** | Luminosity | Snow |
|---|---|---|---|---|---|---|---|
| 1776969003 | 10.56° C | 65% | 1003.3 hPa | - | - | - | - |
| 1776968102 | 11.67° C | 62% | 1003.1 hPa | - | - | - | - |
| 1776967200 | 12.22° C | 58% | 1003 hPa | - | - | 3 W/m² | - |
| 1776966299 | 13.89° C | 53% | 1003 hPa | - | - | 9 W/m² | - |
| 1776965398 | 15° C | 51% | 1002.8 hPa | - | - | 20 W/m² | - |
| 1776964497 | 15.56° C | 49% | 1002.8 hPa | - | - | 34 W/m² | - |
| 1776963596 | 15.56° C | 49% | 1002.7 hPa | - | - | 50 W/m² | - |
| 1776962695 | 16.11° C | 48% | 1002.8 hPa | - | - | 69 W/m² | - |
| 1776961794 | 16.67° C | 44% | 1002.8 hPa | - | - | 101 W/m² | - |
| 1776960893 | 17.22° C | 43% | 1002.8 hPa | - | - | 116 W/m² | - |
| 1776959992 | 17.22° C | 41% | 1002.7 hPa | - | - | 141 W/m² | - |
| 1776959091 | 16.67° C | 43% | 1002.9 hPa | - | - | 109 W/m² | - |
| 1776958190 | 18.33° C | 40% | 1002.9 hPa | - | - | 126 W/m² | - |
| 1776957288 | 18.33° C | 39% | 1002.9 hPa | - | - | 296 W/m² | - |
| 1776956386 | 18.33° C | 41% | 1003 hPa | - | - | 339 W/m² | - |
| 1776955486 | 17.22° C | 44% | 1003.1 hPa | - | - | 369 W/m² | - |
| 1776954584 | 16.11° C | 46% | 1003.2 hPa | - | - | 161 W/m² | - |
| 1776953683 | 17.22° C | 43% | 1003.2 hPa | - | - | 180 W/m² | - |
| 1776952782 | 16.67° C | 42% | 1003.3 hPa | - | - | 233 W/m² | - |
| 1776951881 | 16.11° C | 44% | 1003.5 hPa | - | - | 201 W/m² | - |
| 1776950980 | 16.11° C | 45% | 1003.7 hPa | - | - | 294 W/m² | - |
| 1776950079 | 17.78° C | 42% | 1003.6 hPa | - | - | 264 W/m² | - |
| 1776949178 | 17.78° C | 40% | 1003.8 hPa | - | - | 263 W/m² | - |
| 1776948276 | 17.22° C | 41% | 1003.9 hPa | - | - | 672 W/m² | - |
| 1776947375 | 16.67° C | 39% | 1003.9 hPa | - | - | 216 W/m² | - |
* Rain since midnight (hover to see other rain measurements)
** Current wind speed in m/s (hover to see current wind gust speed)